createdAt,value
2018-10-02T00:02:21.931Z,2.10
2018-10-02T00:04:50.823Z,3.03
2018-10-02T00:07:19.610Z,2.27
2018-10-02T00:09:48.796Z,2.07
2018-10-02T00:12:23.093Z,2.43
2018-10-02T00:14:52.273Z,2.13
2018-10-02T00:17:21.068Z,2.77
2018-10-02T00:19:49.839Z,2.50
2018-10-02T00:22:18.738Z,2.27
2018-10-02T00:24:47.843Z,1.97
2018-10-02T00:27:16.794Z,2.10
2018-10-02T00:29:45.605Z,1.90
2018-10-02T00:32:14.611Z,1.83
2018-10-02T00:34:43.471Z,2.23
2018-10-02T00:37:12.394Z,2.20
2018-10-02T00:39:41.306Z,2.00
2018-10-02T00:42:10.241Z,2.17
2018-10-02T00:44:39.138Z,1.93
2018-10-02T00:47:08.264Z,1.97
2018-10-02T00:49:37.136Z,2.33
2018-10-02T00:52:06.808Z,2.20
2018-10-02T00:54:35.624Z,2.77
2018-10-02T00:57:04.680Z,2.37
2018-10-02T00:59:33.597Z,2.70
2018-10-02T01:02:02.501Z,2.77
2018-10-02T01:04:31.358Z,1.63
2018-10-02T01:07:00.260Z,2.40
2018-10-02T01:09:29.084Z,3.70
2018-10-02T01:11:58.037Z,2.83
2018-10-02T01:14:26.908Z,2.70
2018-10-02T01:16:55.842Z,3.17
2018-10-02T01:19:24.652Z,2.13
2018-10-02T01:21:53.548Z,2.20
2018-10-02T01:24:22.423Z,2.83
2018-10-02T01:26:51.315Z,1.90
2018-10-02T01:29:20.250Z,2.43
2018-10-02T01:31:49.129Z,2.50
2018-10-02T01:34:18.002Z,2.63
2018-10-02T01:36:46.835Z,2.50
2018-10-02T01:39:15.764Z,2.67
2018-10-02T01:41:45.129Z,3.27
2018-10-02T01:44:13.957Z,3.10
2018-10-02T01:46:42.850Z,2.73
2018-10-02T01:49:11.696Z,2.90
2018-10-02T01:51:40.570Z,2.33
2018-10-02T01:54:09.533Z,2.53
2018-10-02T01:56:38.353Z,2.93
2018-10-02T01:59:07.227Z,3.20
2018-10-02T02:01:36.078Z,1.83
2018-10-02T02:04:04.964Z,2.17
2018-10-02T02:06:33.819Z,2.20
2018-10-02T02:09:03.188Z,2.37
2018-10-02T02:11:32.025Z,1.70
2018-10-02T02:14:00.935Z,2.43
2018-10-02T02:16:29.778Z,1.80
2018-10-02T02:18:58.822Z,2.13
2018-10-02T02:21:27.716Z,2.20
2018-10-02T02:23:56.589Z,1.80
2018-10-02T02:26:25.466Z,3.57
2018-10-02T02:28:54.279Z,2.43
2018-10-02T02:31:23.226Z,2.23
2018-10-02T02:33:52.022Z,2.73
2018-10-02T02:36:20.868Z,2.23
2018-10-02T02:38:49.810Z,1.80
2018-10-02T02:41:18.662Z,1.43
2018-10-02T02:43:47.529Z,1.77
2018-10-02T02:46:16.350Z,1.40
2018-10-02T02:48:50.753Z,1.53
2018-10-02T02:51:23.958Z,1.60
2018-10-02T02:53:52.856Z,1.60
2018-10-02T02:56:21.736Z,2.17
2018-10-02T02:58:50.507Z,1.60
2018-10-02T03:01:19.504Z,1.53
2018-10-02T03:03:48.336Z,2.20
2018-10-02T03:06:17.277Z,2.03
2018-10-02T03:08:46.085Z,2.13
2018-10-02T03:11:15.041Z,2.60
2018-10-02T03:13:43.823Z,2.47
2018-10-02T03:16:12.648Z,2.07
2018-10-02T03:18:41.672Z,1.93
2018-10-02T03:21:10.470Z,1.83
2018-10-02T03:23:39.571Z,1.47
2018-10-02T03:26:08.631Z,1.70
2018-10-02T03:28:37.861Z,1.60
2018-10-02T03:31:06.953Z,1.30
2018-10-02T03:33:35.857Z,1.70
2018-10-02T03:36:04.687Z,1.13
2018-10-02T03:38:33.523Z,1.80
2018-10-02T03:41:02.387Z,1.73
2018-10-02T03:43:31.601Z,1.53
2018-10-02T03:46:00.408Z,2.10
2018-10-02T03:48:29.300Z,1.60
2018-10-02T03:50:58.185Z,1.60
2018-10-02T03:53:27.009Z,1.53
2018-10-02T03:55:55.927Z,1.47
2018-10-02T03:58:24.765Z,1.83
2018-10-02T04:00:53.837Z,1.80
2018-10-02T04:03:23.134Z,1.90
2018-10-02T04:05:51.991Z,2.27
2018-10-02T04:08:21.134Z,1.60
2018-10-02T04:10:49.956Z,2.43
2018-10-02T04:13:18.861Z,2.10
2018-10-02T04:15:47.723Z,1.80
2018-10-02T04:18:16.584Z,2.00
2018-10-02T04:20:45.673Z,1.30
2018-10-02T04:23:14.343Z,1.70
2018-10-02T04:25:43.178Z,2.30
2018-10-02T04:28:12.041Z,1.77
2018-10-02T04:30:40.905Z,1.90
2018-10-02T04:33:09.903Z,2.20
2018-10-02T04:35:38.754Z,2.60
2018-10-02T04:38:07.572Z,1.40
2018-10-02T04:40:36.509Z,1.90
2018-10-02T04:43:05.306Z,2.23
2018-10-02T04:45:34.235Z,1.63
2018-10-02T04:48:03.074Z,2.00
2018-10-02T04:50:31.920Z,2.10
2018-10-02T04:53:00.727Z,1.67
2018-10-02T04:55:29.789Z,2.23
2018-10-02T04:57:58.736Z,1.50
2018-10-02T05:00:27.672Z,2.03
2018-10-02T05:02:56.525Z,2.23
2018-10-02T05:05:25.403Z,1.60
2018-10-02T05:07:54.307Z,1.80
2018-10-02T05:10:23.193Z,2.00
2018-10-02T05:12:52.027Z,1.43
2018-10-02T05:15:20.849Z,1.90
2018-10-02T05:17:49.719Z,1.73
2018-10-02T05:20:18.515Z,1.67
2018-10-02T05:22:47.389Z,1.63
2018-10-02T05:25:16.255Z,2.00
2018-10-02T05:27:45.121Z,1.57
2018-10-02T05:30:13.966Z,1.97
2018-10-02T05:32:42.833Z,2.87
2018-10-02T05:35:11.784Z,2.57
2018-10-02T05:37:40.602Z,2.10
2018-10-02T05:40:09.425Z,2.50
2018-10-02T05:42:38.329Z,1.93
2018-10-02T05:45:08.229Z,3.00
2018-10-02T05:47:37.190Z,2.50
2018-10-02T05:50:06.188Z,2.20
2018-10-02T05:52:35.421Z,2.50
2018-10-02T05:55:04.719Z,2.30
2018-10-02T05:57:34.724Z,2.20
2018-10-02T06:00:03.767Z,2.57
2018-10-02T06:02:32.822Z,2.20
2018-10-02T06:05:01.697Z,2.47
2018-10-02T06:07:30.591Z,2.40
2018-10-02T06:09:59.497Z,2.33
2018-10-02T06:12:28.348Z,2.07
2018-10-02T06:14:57.217Z,2.43
2018-10-02T06:17:26.046Z,2.33
2018-10-02T06:19:54.960Z,2.63
2018-10-02T06:22:23.730Z,2.80
2018-10-02T06:24:52.987Z,3.00
2018-10-02T06:27:21.773Z,2.67
2018-10-02T06:29:50.665Z,3.23
2018-10-02T06:32:19.501Z,2.57
2018-10-02T06:34:48.358Z,2.27
2018-10-02T06:37:17.349Z,2.90
2018-10-02T06:39:46.255Z,2.83
2018-10-02T06:42:15.127Z,3.20
2018-10-02T06:44:44.127Z,3.10
2018-10-02T06:47:12.897Z,2.80
2018-10-02T06:49:42.393Z,2.93
2018-10-02T06:52:11.993Z,2.67
2018-10-02T06:54:41.032Z,3.10
2018-10-02T06:57:09.940Z,3.17
2018-10-02T06:59:39.003Z,3.27
2018-10-02T07:02:08.620Z,2.63
2018-10-02T07:04:39.104Z,3.10
2018-10-02T07:07:07.984Z,3.40
2018-10-02T07:09:37.182Z,3.20
2018-10-02T07:12:06.133Z,4.47
2018-10-02T07:14:35.431Z,4.20
2018-10-02T07:17:04.255Z,3.70
2018-10-02T07:19:33.369Z,3.73
2018-10-02T07:22:02.157Z,3.43
2018-10-02T07:24:30.975Z,3.53
2018-10-02T07:27:00.072Z,3.87
2018-10-02T07:29:28.863Z,3.53
2018-10-02T07:31:57.731Z,4.00
2018-10-02T07:34:26.531Z,4.43
2018-10-02T07:36:55.529Z,4.40
2018-10-02T07:39:25.224Z,4.57
2018-10-02T07:41:54.731Z,5.70
2018-10-02T07:44:23.734Z,5.43
2018-10-02T07:46:52.615Z,5.37
2018-10-02T07:49:21.709Z,6.43
2018-10-02T07:51:50.973Z,6.00
2018-10-02T07:54:20.231Z,6.30
2018-10-02T07:56:49.140Z,7.10
2018-10-02T07:59:18.859Z,7.07
2018-10-02T08:01:47.988Z,6.90
2018-10-02T08:04:17.725Z,7.57
2018-10-02T08:06:46.575Z,6.83
2018-10-02T08:09:16.199Z,8.03
2018-10-02T08:11:45.062Z,8.00
2018-10-02T08:14:14.185Z,6.60
2018-10-02T08:16:43.071Z,7.53
2018-10-02T08:19:11.920Z,7.93
2018-10-02T08:21:40.946Z,7.47
2018-10-02T08:24:10.346Z,8.10
2018-10-02T08:26:40.403Z,8.07
2018-10-02T08:29:09.944Z,8.63
2018-10-02T08:31:38.862Z,8.57
2018-10-02T08:34:07.808Z,8.07
2018-10-02T08:36:36.988Z,8.00
2018-10-02T08:39:08.805Z,9.00
2018-10-02T08:41:41.106Z,9.23
2018-10-02T08:44:11.633Z,8.37
2018-10-02T08:46:43.593Z,9.23
2018-10-02T08:49:15.348Z,9.80
2018-10-02T08:51:46.520Z,9.27
2018-10-02T08:54:17.100Z,9.37
2018-10-02T08:56:48.034Z,10.17
2018-10-02T08:59:19.325Z,8.20
2018-10-02T09:01:48.986Z,8.87
2018-10-02T09:04:18.143Z,8.63
2018-10-02T09:06:47.035Z,8.73
2018-10-02T09:09:15.954Z,8.63
2018-10-02T09:11:44.825Z,10.10
2018-10-02T09:14:13.760Z,10.00
2018-10-02T09:16:42.784Z,9.17
2018-10-02T09:19:11.840Z,10.27
2018-10-02T09:21:40.859Z,10.37
2018-10-02T09:24:09.657Z,9.93
2018-10-02T09:26:38.717Z,10.03
2018-10-02T09:29:07.834Z,9.40
2018-10-02T09:31:42.248Z,9.90
2018-10-02T09:34:16.891Z,8.80
2018-10-02T09:36:51.542Z,9.33
2018-10-02T09:39:26.310Z,10.00
2018-10-02T09:42:00.570Z,8.93
2018-10-02T09:44:29.474Z,9.57
2018-10-02T09:46:58.666Z,9.50
2018-10-02T09:49:27.637Z,9.00
2018-10-02T09:51:56.507Z,8.93
2018-10-02T09:54:25.438Z,8.83
2018-10-02T09:56:54.583Z,10.47
2018-10-02T09:59:23.845Z,10.20
2018-10-02T10:01:58.364Z,10.13
2018-10-02T10:04:27.303Z,10.10
2018-10-02T10:06:56.484Z,9.17
2018-10-02T10:09:25.348Z,9.97
2018-10-02T10:11:54.175Z,10.03
2018-10-02T10:14:22.975Z,9.40
2018-10-02T10:16:52.024Z,9.37
2018-10-02T10:19:20.773Z,9.93
2018-10-02T10:21:49.965Z,10.13
2018-10-02T10:24:18.815Z,10.37
2018-10-02T10:26:47.641Z,9.60
2018-10-02T10:29:16.533Z,9.30
2018-10-02T10:31:45.362Z,9.47
2018-10-02T10:34:14.701Z,10.37
2018-10-02T10:36:43.529Z,9.03
2018-10-02T10:39:12.442Z,9.70
2018-10-02T10:41:41.312Z,8.70
2018-10-02T10:44:10.190Z,8.83
2018-10-02T10:46:39.167Z,7.77
2018-10-02T10:49:07.991Z,6.47
2018-10-02T10:51:36.825Z,7.67
2018-10-02T10:54:05.716Z,8.13
2018-10-02T10:56:34.576Z,7.17
2018-10-02T10:59:03.646Z,7.73
2018-10-02T11:01:32.755Z,6.97
2018-10-02T11:04:01.722Z,7.20
2018-10-02T11:06:30.566Z,7.23
2018-10-02T11:08:59.358Z,7.33
2018-10-02T11:11:28.480Z,7.87
2018-10-02T11:13:57.377Z,7.33
2018-10-02T11:16:26.206Z,6.87
2018-10-02T11:18:55.034Z,6.70
2018-10-02T11:21:23.907Z,7.03
2018-10-02T11:23:52.827Z,7.03
2018-10-02T11:26:21.698Z,7.90
2018-10-02T11:28:50.523Z,7.97
2018-10-02T11:31:19.703Z,7.23
2018-10-02T11:33:48.580Z,7.90
2018-10-02T11:36:17.505Z,7.27
2018-10-02T11:38:46.328Z,7.73
2018-10-02T11:41:15.252Z,8.37
2018-10-02T11:43:44.181Z,7.53
2018-10-02T11:46:13.035Z,8.20
2018-10-02T11:48:41.928Z,8.40
2018-10-02T11:51:10.805Z,9.03
2018-10-02T11:53:39.662Z,8.50
2018-10-02T11:56:08.545Z,9.00
2018-10-02T11:58:37.380Z,8.70
2018-10-02T12:01:06.772Z,8.93
2018-10-02T12:03:35.655Z,9.23
2018-10-02T12:06:04.507Z,9.57
2018-10-02T12:08:33.411Z,9.27
2018-10-02T12:11:02.252Z,9.90
2018-10-02T12:13:31.726Z,11.03
2018-10-02T12:16:00.418Z,10.40
2018-10-02T12:18:29.318Z,10.97
2018-10-02T12:20:58.137Z,11.53
2018-10-02T12:23:26.995Z,11.87
2018-10-02T12:25:55.849Z,12.67
2018-10-02T12:28:24.704Z,12.77
2018-10-02T12:30:53.575Z,12.70
2018-10-02T12:33:22.475Z,12.10
2018-10-02T12:35:51.283Z,12.73
2018-10-02T12:38:20.230Z,12.73
2018-10-02T12:40:49.056Z,11.23
2018-10-02T12:43:18.211Z,11.93
2018-10-02T12:45:47.000Z,12.00
2018-10-02T12:48:15.875Z,11.27
2018-10-02T12:50:44.881Z,11.07
2018-10-02T12:53:13.889Z,11.93
2018-10-02T12:55:42.708Z,11.33
2018-10-02T12:58:11.592Z,11.10
2018-10-02T13:00:40.421Z,10.30
2018-10-02T13:03:09.357Z,11.93
2018-10-02T13:05:38.260Z,11.97
2018-10-02T13:08:07.107Z,12.40
2018-10-02T13:10:36.027Z,13.00
2018-10-02T13:13:04.922Z,12.57
2018-10-02T13:15:33.868Z,11.63
2018-10-02T13:18:02.813Z,13.27
2018-10-02T13:20:31.707Z,12.30
2018-10-02T13:23:00.597Z,12.43
2018-10-02T13:25:29.518Z,13.73
2018-10-02T13:27:58.480Z,11.43
2018-10-02T13:30:27.368Z,10.83
2018-10-02T13:32:56.184Z,12.87
2018-10-02T13:35:25.151Z,11.27
2018-10-02T13:37:54.043Z,11.07
2018-10-02T13:40:22.970Z,11.63
2018-10-02T13:42:52.158Z,10.80
2018-10-02T13:45:21.036Z,11.07
2018-10-02T13:47:49.811Z,9.90
2018-10-02T13:50:18.733Z,9.80
2018-10-02T13:52:47.661Z,8.53
2018-10-02T13:55:16.562Z,9.80
2018-10-02T13:57:45.395Z,9.43
2018-10-02T14:00:14.272Z,8.67
2018-10-02T14:02:43.441Z,8.53
2018-10-02T14:05:12.312Z,9.10
2018-10-02T14:07:41.260Z,8.97
2018-10-02T14:10:09.775Z,9.50
2018-10-02T14:12:38.646Z,9.47
2018-10-02T14:15:07.641Z,9.17
2018-10-02T14:17:36.674Z,9.93
2018-10-02T14:20:05.934Z,10.80
2018-10-02T14:22:34.835Z,10.63
2018-10-02T14:25:03.757Z,11.40
2018-10-02T14:27:32.598Z,11.63
2018-10-02T14:30:01.481Z,9.67
2018-10-02T14:32:30.413Z,11.67
2018-10-02T14:34:59.560Z,11.33
2018-10-02T14:37:28.479Z,9.83
2018-10-02T14:39:57.422Z,10.43
2018-10-02T14:42:26.326Z,8.27
2018-10-02T14:44:55.174Z,7.57
2018-10-02T14:47:24.154Z,6.50
2018-10-02T14:49:52.975Z,5.60
2018-10-02T14:52:21.919Z,4.40
2018-10-02T14:54:51.123Z,3.40
2018-10-02T14:57:19.971Z,3.40
2018-10-02T14:59:48.904Z,3.43
2018-10-02T15:02:17.780Z,3.40
2018-10-02T15:04:46.704Z,2.60
2018-10-02T15:07:15.531Z,2.83
2018-10-02T15:09:44.353Z,2.73
2018-10-02T15:12:13.215Z,2.57
2018-10-02T15:14:42.028Z,2.77
2018-10-02T15:17:10.832Z,3.07
2018-10-02T15:19:39.731Z,2.80
2018-10-02T15:22:08.529Z,3.27
2018-10-02T15:24:37.392Z,3.63
2018-10-02T15:27:06.287Z,2.73
2018-10-02T15:29:35.164Z,2.93
2018-10-02T15:32:04.090Z,3.40
2018-10-02T15:34:32.931Z,2.47
2018-10-02T15:37:01.726Z,3.07
2018-10-02T15:39:30.624Z,3.67
2018-10-02T15:41:59.442Z,2.50
2018-10-02T15:44:28.691Z,2.93
2018-10-02T15:46:57.787Z,3.83
2018-10-02T15:49:26.668Z,3.43
2018-10-02T15:51:55.580Z,2.73
2018-10-02T15:54:24.397Z,3.60
2018-10-02T15:56:53.351Z,4.03
2018-10-02T15:59:22.579Z,3.57
2018-10-02T16:01:51.472Z,3.47
2018-10-02T16:04:20.309Z,3.47
2018-10-02T16:06:49.200Z,2.90
2018-10-02T16:09:18.390Z,3.40
2018-10-02T16:11:47.419Z,3.93
2018-10-02T16:14:16.367Z,3.93
2018-10-02T16:16:45.249Z,3.00
2018-10-02T16:19:14.078Z,2.70
2018-10-02T16:21:43.322Z,3.90
2018-10-02T16:24:12.188Z,4.23
2018-10-02T16:26:41.024Z,3.70
2018-10-02T16:29:09.874Z,3.17
2018-10-02T16:31:38.728Z,3.13
2018-10-02T16:34:07.951Z,3.33
2018-10-02T16:36:36.803Z,2.93
2018-10-02T16:39:08.569Z,3.37
2018-10-02T16:41:37.704Z,3.30
2018-10-02T16:44:06.843Z,4.13
2018-10-02T16:46:35.784Z,3.30
2018-10-02T16:49:04.648Z,4.20
2018-10-02T16:51:33.567Z,3.67
2018-10-02T16:54:02.391Z,3.03
2018-10-02T16:56:31.597Z,4.90
2018-10-02T16:59:00.775Z,4.30
2018-10-02T17:01:30.398Z,4.23
2018-10-02T17:03:59.728Z,3.43
2018-10-02T17:06:28.736Z,3.63
2018-10-02T17:08:57.569Z,4.00
2018-10-02T17:11:26.484Z,3.97
2018-10-02T17:13:57.120Z,4.30
2018-10-02T17:16:28.212Z,3.40
2018-10-02T17:18:58.887Z,3.77
2018-10-02T17:21:29.744Z,3.30
2018-10-02T17:24:01.156Z,3.83
2018-10-02T17:26:32.275Z,3.40
2018-10-02T17:29:04.263Z,3.67
2018-10-02T17:31:33.517Z,3.40
2018-10-02T17:34:02.514Z,3.60
2018-10-02T17:36:31.336Z,3.23
2018-10-02T17:39:00.164Z,2.70
2018-10-02T17:41:29.009Z,3.33
2018-10-02T17:43:58.037Z,3.63
2018-10-02T17:46:27.061Z,3.80
2018-10-02T17:48:55.944Z,3.77
2018-10-02T17:51:24.920Z,2.67
2018-10-02T17:53:54.089Z,2.37
2018-10-02T17:56:23.027Z,3.17
2018-10-02T17:58:51.912Z,3.83
2018-10-02T18:01:20.995Z,2.70
2018-10-02T18:03:49.938Z,3.83
2018-10-02T18:06:18.743Z,3.23
2018-10-02T18:08:47.706Z,3.13
2018-10-02T18:11:16.546Z,3.17
2018-10-02T18:13:45.425Z,3.20
2018-10-02T18:16:14.252Z,3.43
2018-10-02T18:18:43.713Z,3.83
2018-10-02T18:21:12.684Z,3.27
2018-10-02T18:23:42.570Z,3.07
2018-10-02T18:26:11.540Z,3.70
2018-10-02T18:28:40.311Z,3.20
2018-10-02T18:31:09.380Z,3.67
2018-10-02T18:33:38.299Z,3.50
2018-10-02T18:36:07.123Z,3.27
2018-10-02T18:38:36.270Z,4.37
2018-10-02T18:41:05.274Z,3.20
2018-10-02T18:43:34.057Z,4.17
2018-10-02T18:46:03.425Z,3.07
2018-10-02T18:48:32.280Z,3.80
2018-10-02T18:51:01.186Z,3.53
2018-10-02T18:53:30.269Z,4.00
2018-10-02T18:55:59.371Z,4.67
2018-10-02T18:58:28.467Z,3.53
2018-10-02T19:00:57.837Z,3.10
2018-10-02T19:03:26.742Z,4.20
2018-10-02T19:05:55.751Z,3.97
2018-10-02T19:08:30.618Z,4.57
2018-10-02T19:11:04.112Z,3.43
2018-10-02T19:13:33.669Z,4.20
2018-10-02T19:16:08.406Z,4.27
2018-10-02T19:18:37.628Z,4.17
2018-10-02T19:21:06.736Z,3.00
2018-10-02T19:23:35.874Z,3.70
2018-10-02T19:26:13.413Z,4.03
2018-10-02T19:28:42.525Z,4.77
2018-10-02T19:31:17.469Z,4.57
2018-10-02T19:33:46.833Z,3.93
2018-10-02T19:36:15.927Z,4.13
2018-10-02T19:38:58.577Z,4.37
2018-10-02T19:41:28.475Z,3.87
2018-10-02T19:43:57.329Z,3.07
2018-10-02T19:46:33.110Z,3.57
2018-10-02T19:49:02.065Z,3.13
2018-10-02T19:51:36.796Z,4.83
2018-10-02T19:54:05.990Z,3.60
2018-10-02T19:56:35.105Z,3.97
2018-10-02T19:59:04.311Z,3.83
2018-10-02T20:01:33.178Z,4.03
2018-10-02T20:04:02.610Z,3.87
2018-10-02T20:06:31.967Z,4.17
2018-10-02T20:09:00.998Z,4.27
2018-10-02T20:11:30.072Z,4.03
2018-10-02T20:13:59.367Z,3.27
2018-10-02T20:16:28.360Z,3.77
2018-10-02T20:18:57.349Z,3.50
2018-10-02T20:21:26.659Z,3.00
2018-10-02T20:23:55.559Z,3.27
2018-10-02T20:26:24.658Z,2.80
2018-10-02T20:28:53.992Z,4.33
2018-10-02T20:31:23.484Z,4.10
2018-10-02T20:33:52.474Z,3.70
2018-10-02T20:36:21.728Z,4.17
2018-10-02T20:38:50.605Z,3.60
2018-10-02T20:41:19.402Z,3.50
2018-10-02T20:43:48.462Z,3.33
2018-10-02T20:46:17.289Z,2.77
2018-10-02T20:48:46.171Z,3.37
2018-10-02T20:51:15.346Z,4.70
2018-10-02T20:53:44.221Z,4.10
2018-10-02T20:56:13.065Z,3.63
2018-10-02T20:58:42.243Z,3.37
2018-10-02T21:01:11.120Z,2.40
2018-10-02T21:03:40.273Z,3.30
2018-10-02T21:06:09.321Z,3.43
2018-10-02T21:08:38.148Z,4.67
2018-10-02T21:11:07.045Z,3.40
2018-10-02T21:13:36.326Z,3.73
2018-10-02T21:16:05.311Z,2.53
2018-10-02T21:18:34.231Z,4.00
2018-10-02T21:21:03.652Z,2.87
2018-10-02T21:23:32.505Z,3.10
2018-10-02T21:26:01.328Z,3.10
2018-10-02T21:28:31.695Z,3.90
2018-10-02T21:31:00.548Z,3.90
2018-10-02T21:33:29.348Z,3.50
2018-10-02T21:35:58.581Z,3.60
2018-10-02T21:38:27.391Z,3.87
2018-10-02T21:40:56.319Z,3.60
2018-10-02T21:43:25.489Z,3.90
2018-10-02T21:45:54.292Z,3.63
2018-10-02T21:48:23.262Z,4.47
2018-10-02T21:50:52.344Z,3.80
2018-10-02T21:53:21.224Z,4.50
2018-10-02T21:55:50.147Z,3.20
2018-10-02T21:58:19.366Z,3.87
2018-10-02T22:00:48.370Z,4.27
2018-10-02T22:03:17.172Z,3.80
2018-10-02T22:05:46.441Z,3.93
2018-10-02T22:08:15.260Z,4.00
2018-10-02T22:10:44.103Z,3.77
2018-10-02T22:13:13.529Z,4.43
2018-10-02T22:15:42.321Z,3.53
2018-10-02T22:18:11.179Z,3.23
2018-10-02T22:20:40.431Z,3.47
2018-10-02T22:23:09.245Z,2.93
2018-10-02T22:25:38.088Z,4.90
2018-10-02T22:28:07.315Z,3.30
2018-10-02T22:30:36.192Z,3.67
2018-10-02T22:33:05.066Z,3.70
2018-10-02T22:35:34.451Z,4.00
2018-10-02T22:38:03.283Z,3.70
2018-10-02T22:40:32.095Z,3.50
2018-10-02T22:43:02.316Z,3.27
2018-10-02T22:45:31.093Z,3.60
2018-10-02T22:47:59.896Z,2.90
2018-10-02T22:50:29.633Z,3.20
2018-10-02T22:52:58.737Z,3.97
2018-10-02T22:55:27.608Z,3.17
2018-10-02T22:57:56.835Z,4.20
2018-10-02T23:00:25.662Z,3.40
2018-10-02T23:02:54.472Z,3.47
2018-10-02T23:05:23.650Z,3.03
2018-10-02T23:07:52.514Z,3.33
2018-10-02T23:10:21.354Z,3.23
2018-10-02T23:12:50.828Z,4.20
2018-10-02T23:15:19.635Z,3.93
2018-10-02T23:17:48.512Z,4.97
2018-10-02T23:20:17.808Z,3.80
2018-10-02T23:22:46.903Z,3.37
2018-10-02T23:25:15.736Z,3.20
2018-10-02T23:27:44.655Z,3.10
2018-10-02T23:30:13.603Z,2.87
2018-10-02T23:32:42.856Z,2.50
2018-10-02T23:35:11.692Z,2.77
2018-10-02T23:37:40.584Z,3.50
2018-10-02T23:40:09.744Z,3.10
2018-10-02T23:42:38.532Z,3.27
2018-10-02T23:45:07.543Z,4.13
2018-10-02T23:47:36.727Z,3.47
2018-10-02T23:50:05.604Z,3.03
2018-10-02T23:52:34.623Z,2.73
2018-10-02T23:55:03.830Z,3.50
2018-10-02T23:57:32.676Z,3.10
